sensor_id;sensor_type;location;lat;lon;timestamp;P1;durP1;ratioP1;P2;durP2;ratioP2
56399;SDS011;42298;53.638;9.876;2022-07-23T00:01:22;4.97;;;1.73;;
56399;SDS011;42298;53.638;9.876;2022-07-23T00:03:48;3.85;;;1.48;;
56399;SDS011;42298;53.638;9.876;2022-07-23T00:06:14;3.85;;;1.73;;
56399;SDS011;42298;53.638;9.876;2022-07-23T00:08:39;7.70;;;2.00;;
56399;SDS011;42298;53.638;9.876;2022-07-23T00:11:04;7.32;;;2.00;;
56399;SDS011;42298;53.638;9.876;2022-07-23T00:13:30;3.95;;;1.58;;
56399;SDS011;42298;53.638;9.876;2022-07-23T00:15:55;4.50;;;1.73;;
56399;SDS011;42298;53.638;9.876;2022-07-23T00:18:21;3.85;;;1.60;;
56399;SDS011;42298;53.638;9.876;2022-07-23T00:20:46;4.38;;;1.92;;
56399;SDS011;42298;53.638;9.876;2022-07-23T00:23:12;5.43;;;1.90;;
56399;SDS011;42298;53.638;9.876;2022-07-23T00:25:37;6.38;;;1.60;;
56399;SDS011;42298;53.638;9.876;2022-07-23T00:28:02;4.03;;;1.80;;
56399;SDS011;42298;53.638;9.876;2022-07-23T00:30:29;3.97;;;1.70;;
56399;SDS011;42298;53.638;9.876;2022-07-23T00:32:56;3.47;;;1.52;;
56399;SDS011;42298;53.638;9.876;2022-07-23T00:35:27;5.25;;;1.60;;
56399;SDS011;42298;53.638;9.876;2022-07-23T00:37:54;4.25;;;1.80;;
56399;SDS011;42298;53.638;9.876;2022-07-23T00:40:21;4.32;;;1.42;;
56399;SDS011;42298;53.638;9.876;2022-07-23T00:42:46;5.55;;;1.45;;
56399;SDS011;42298;53.638;9.876;2022-07-23T00:45:12;2.25;;;1.40;;
56399;SDS011;42298;53.638;9.876;2022-07-23T00:47:37;5.22;;;1.50;;
56399;SDS011;42298;53.638;9.876;2022-07-23T00:50:03;5.93;;;1.60;;
56399;SDS011;42298;53.638;9.876;2022-07-23T00:52:31;5.15;;;1.60;;
56399;SDS011;42298;53.638;9.876;2022-07-23T00:54:57;1.95;;;1.40;;
56399;SDS011;42298;53.638;9.876;2022-07-23T00:57:22;5.00;;;1.60;;
56399;SDS011;42298;53.638;9.876;2022-07-23T00:59:48;5.28;;;1.50;;
56399;SDS011;42298;53.638;9.876;2022-07-23T01:02:16;4.03;;;1.33;;
56399;SDS011;42298;53.638;9.876;2022-07-23T01:04:42;3.83;;;1.42;;
56399;SDS011;42298;53.638;9.876;2022-07-23T01:07:07;5.13;;;1.80;;
56399;SDS011;42298;53.638;9.876;2022-07-23T01:09:33;4.72;;;1.67;;
56399;SDS011;42298;53.638;9.876;2022-07-23T01:11:58;4.20;;;1.80;;
56399;SDS011;42298;53.638;9.876;2022-07-23T01:14:24;2.90;;;1.30;;
56399;SDS011;42298;53.638;9.876;2022-07-23T01:16:49;3.40;;;1.52;;
56399;SDS011;42298;53.638;9.876;2022-07-23T01:19:15;4.93;;;1.65;;
56399;SDS011;42298;53.638;9.876;2022-07-23T01:21:42;4.43;;;1.52;;
56399;SDS011;42298;53.638;9.876;2022-07-23T01:24:11;5.70;;;1.40;;
56399;SDS011;42298;53.638;9.876;2022-07-23T01:26:37;3.33;;;1.50;;
56399;SDS011;42298;53.638;9.876;2022-07-23T01:29:04;5.70;;;1.73;;
56399;SDS011;42298;53.638;9.876;2022-07-23T01:31:30;4.20;;;1.50;;
56399;SDS011;42298;53.638;9.876;2022-07-23T01:33:56;2.08;;;1.42;;
56399;SDS011;42298;53.638;9.876;2022-07-23T01:36:21;4.55;;;1.40;;
56399;SDS011;42298;53.638;9.876;2022-07-23T01:38:48;2.72;;;1.60;;
56399;SDS011;42298;53.638;9.876;2022-07-23T01:41:13;5.65;;;1.77;;
56399;SDS011;42298;53.638;9.876;2022-07-23T01:43:39;4.75;;;1.67;;
56399;SDS011;42298;53.638;9.876;2022-07-23T01:46:04;7.32;;;1.70;;
56399;SDS011;42298;53.638;9.876;2022-07-23T01:48:29;5.00;;;1.70;;
56399;SDS011;42298;53.638;9.876;2022-07-23T01:50:55;3.08;;;1.63;;
56399;SDS011;42298;53.638;9.876;2022-07-23T01:53:20;4.82;;;1.70;;
56399;SDS011;42298;53.638;9.876;2022-07-23T01:55:45;3.60;;;1.73;;
56399;SDS011;42298;53.638;9.876;2022-07-23T01:58:11;5.10;;;1.55;;
56399;SDS011;42298;53.638;9.876;2022-07-23T02:00:36;6.10;;;1.60;;
56399;SDS011;42298;53.638;9.876;2022-07-23T02:03:01;4.80;;;1.63;;
56399;SDS011;42298;53.638;9.876;2022-07-23T02:05:27;5.55;;;1.50;;
56399;SDS011;42298;53.638;9.876;2022-07-23T02:07:54;3.17;;;1.50;;
56399;SDS011;42298;53.638;9.876;2022-07-23T02:10:19;4.80;;;1.63;;
56399;SDS011;42298;53.638;9.876;2022-07-23T02:12:45;3.55;;;1.55;;
56399;SDS011;42298;53.638;9.876;2022-07-23T02:15:11;3.58;;;1.50;;
56399;SDS011;42298;53.638;9.876;2022-07-23T02:17:36;5.15;;;1.70;;
56399;SDS011;42298;53.638;9.876;2022-07-23T02:20:02;4.20;;;1.83;;
56399;SDS011;42298;53.638;9.876;2022-07-23T02:22:27;5.53;;;1.50;;
56399;SDS011;42298;53.638;9.876;2022-07-23T02:24:53;5.15;;;1.83;;
56399;SDS011;42298;53.638;9.876;2022-07-23T02:27:18;3.13;;;1.70;;
56399;SDS011;42298;53.638;9.876;2022-07-23T02:29:43;6.05;;;1.65;;
56399;SDS011;42298;53.638;9.876;2022-07-23T02:32:08;4.75;;;2.03;;
56399;SDS011;42298;53.638;9.876;2022-07-23T02:34:34;4.63;;;1.90;;
56399;SDS011;42298;53.638;9.876;2022-07-23T02:36:59;3.17;;;1.70;;
56399;SDS011;42298;53.638;9.876;2022-07-23T02:39:24;5.15;;;1.88;;
56399;SDS011;42298;53.638;9.876;2022-07-23T02:41:50;5.47;;;2.08;;
56399;SDS011;42298;53.638;9.876;2022-07-23T02:44:15;4.45;;;1.80;;
56399;SDS011;42298;53.638;9.876;2022-07-23T02:46:40;4.75;;;1.85;;
56399;SDS011;42298;53.638;9.876;2022-07-23T02:49:06;4.40;;;1.95;;
56399;SDS011;42298;53.638;9.876;2022-07-23T02:51:31;4.80;;;1.88;;
56399;SDS011;42298;53.638;9.876;2022-07-23T02:53:56;5.50;;;1.75;;
56399;SDS011;42298;53.638;9.876;2022-07-23T02:56:21;5.30;;;1.85;;
56399;SDS011;42298;53.638;9.876;2022-07-23T02:58:47;4.00;;;1.80;;
56399;SDS011;42298;53.638;9.876;2022-07-23T03:01:12;4.65;;;1.65;;
56399;SDS011;42298;53.638;9.876;2022-07-23T03:03:37;4.05;;;1.80;;
56399;SDS011;42298;53.638;9.876;2022-07-23T03:06:03;5.97;;;1.90;;
56399;SDS011;42298;53.638;9.876;2022-07-23T03:08:28;4.45;;;1.92;;
56399;SDS011;42298;53.638;9.876;2022-07-23T03:10:54;5.47;;;1.95;;
56399;SDS011;42298;53.638;9.876;2022-07-23T03:13:19;2.50;;;1.55;;
56399;SDS011;42298;53.638;9.876;2022-07-23T03:15:44;6.15;;;1.90;;
56399;SDS011;42298;53.638;9.876;2022-07-23T03:18:10;3.88;;;1.98;;
56399;SDS011;42298;53.638;9.876;2022-07-23T03:20:35;6.38;;;1.90;;
56399;SDS011;42298;53.638;9.876;2022-07-23T03:23:02;4.90;;;1.80;;
56399;SDS011;42298;53.638;9.876;2022-07-23T03:25:27;3.55;;;1.58;;
56399;SDS011;42298;53.638;9.876;2022-07-23T03:27:53;4.05;;;1.67;;
56399;SDS011;42298;53.638;9.876;2022-07-23T03:30:18;4.07;;;1.50;;
56399;SDS011;42298;53.638;9.876;2022-07-23T03:32:43;5.10;;;1.80;;
56399;SDS011;42298;53.638;9.876;2022-07-23T03:35:09;5.70;;;1.80;;
56399;SDS011;42298;53.638;9.876;2022-07-23T03:37:35;4.40;;;1.80;;
56399;SDS011;42298;53.638;9.876;2022-07-23T03:40:00;5.00;;;2.00;;
56399;SDS011;42298;53.638;9.876;2022-07-23T03:42:26;7.38;;;2.17;;
56399;SDS011;42298;53.638;9.876;2022-07-23T03:44:52;2.85;;;1.75;;
56399;SDS011;42298;53.638;9.876;2022-07-23T03:47:17;4.70;;;1.60;;
56399;SDS011;42298;53.638;9.876;2022-07-23T03:49:46;2.53;;;1.60;;
56399;SDS011;42298;53.638;9.876;2022-07-23T03:52:12;2.95;;;1.50;;
56399;SDS011;42298;53.638;9.876;2022-07-23T03:54:38;3.80;;;1.75;;
56399;SDS011;42298;53.638;9.876;2022-07-23T03:57:03;3.53;;;1.70;;
56399;SDS011;42298;53.638;9.876;2022-07-23T03:59:28;4.55;;;1.63;;
56399;SDS011;42298;53.638;9.876;2022-07-23T04:01:54;6.82;;;1.75;;
56399;SDS011;42298;53.638;9.876;2022-07-23T04:04:19;5.78;;;1.90;;
56399;SDS011;42298;53.638;9.876;2022-07-23T04:06:44;3.90;;;1.80;;
56399;SDS011;42298;53.638;9.876;2022-07-23T04:09:10;5.53;;;2.00;;
56399;SDS011;42298;53.638;9.876;2022-07-23T04:11:35;5.82;;;1.88;;
56399;SDS011;42298;53.638;9.876;2022-07-23T04:14:00;3.75;;;1.55;;
56399;SDS011;42298;53.638;9.876;2022-07-23T04:16:26;6.45;;;1.90;;
56399;SDS011;42298;53.638;9.876;2022-07-23T04:18:51;3.90;;;1.75;;
56399;SDS011;42298;53.638;9.876;2022-07-23T04:21:16;5.70;;;2.00;;
56399;SDS011;42298;53.638;9.876;2022-07-23T04:23:42;4.63;;;1.60;;
56399;SDS011;42298;53.638;9.876;2022-07-23T04:26:07;7.40;;;2.08;;
56399;SDS011;42298;53.638;9.876;2022-07-23T04:28:32;3.35;;;1.55;;
56399;SDS011;42298;53.638;9.876;2022-07-23T04:30:58;3.80;;;1.80;;
56399;SDS011;42298;53.638;9.876;2022-07-23T04:33:23;4.45;;;1.65;;
56399;SDS011;42298;53.638;9.876;2022-07-23T04:35:48;3.88;;;2.08;;
56399;SDS011;42298;53.638;9.876;2022-07-23T04:38:14;2.97;;;1.73;;
56399;SDS011;42298;53.638;9.876;2022-07-23T04:40:39;4.88;;;1.90;;
56399;SDS011;42298;53.638;9.876;2022-07-23T04:43:04;3.17;;;1.48;;
56399;SDS011;42298;53.638;9.876;2022-07-23T04:45:30;4.40;;;1.40;;
56399;SDS011;42298;53.638;9.876;2022-07-23T04:47:55;4.68;;;1.83;;
56399;SDS011;42298;53.638;9.876;2022-07-23T04:50:21;3.50;;;1.52;;
56399;SDS011;42298;53.638;9.876;2022-07-23T04:52:47;3.10;;;1.30;;
56399;SDS011;42298;53.638;9.876;2022-07-23T04:55:13;2.45;;;1.27;;
56399;SDS011;42298;53.638;9.876;2022-07-23T04:57:39;2.58;;;1.30;;
56399;SDS011;42298;53.638;9.876;2022-07-23T05:00:05;3.10;;;1.50;;
56399;SDS011;42298;53.638;9.876;2022-07-23T05:02:31;1.70;;;1.20;;
56399;SDS011;42298;53.638;9.876;2022-07-23T05:04:56;4.40;;;1.30;;
56399;SDS011;42298;53.638;9.876;2022-07-23T05:07:22;1.27;;;1.10;;
56399;SDS011;42298;53.638;9.876;2022-07-23T05:09:47;3.25;;;1.20;;
56399;SDS011;42298;53.638;9.876;2022-07-23T05:12:12;3.58;;;1.20;;
56399;SDS011;42298;53.638;9.876;2022-07-23T05:14:38;2.47;;;1.23;;
56399;SDS011;42298;53.638;9.876;2022-07-23T05:17:03;2.70;;;1.20;;
56399;SDS011;42298;53.638;9.876;2022-07-23T05:19:28;2.95;;;1.27;;
56399;SDS011;42298;53.638;9.876;2022-07-23T05:21:54;4.65;;;1.38;;
56399;SDS011;42298;53.638;9.876;2022-07-23T05:24:19;2.60;;;1.15;;
56399;SDS011;42298;53.638;9.876;2022-07-23T05:26:45;2.03;;;1.00;;
56399;SDS011;42298;53.638;9.876;2022-07-23T05:29:10;2.08;;;1.20;;
56399;SDS011;42298;53.638;9.876;2022-07-23T05:31:35;2.97;;;1.20;;
56399;SDS011;42298;53.638;9.876;2022-07-23T05:34:00;1.48;;;1.05;;
56399;SDS011;42298;53.638;9.876;2022-07-23T05:36:26;3.47;;;1.27;;
56399;SDS011;42298;53.638;9.876;2022-07-23T05:38:51;2.30;;;1.17;;
56399;SDS011;42298;53.638;9.876;2022-07-23T05:41:16;4.95;;;1.33;;
56399;SDS011;42298;53.638;9.876;2022-07-23T05:43:42;1.48;;;1.38;;
56399;SDS011;42298;53.638;9.876;2022-07-23T05:46:07;2.55;;;1.45;;
56399;SDS011;42298;53.638;9.876;2022-07-23T05:48:32;3.83;;;1.33;;
56399;SDS011;42298;53.638;9.876;2022-07-23T05:50:58;4.82;;;1.40;;
56399;SDS011;42298;53.638;9.876;2022-07-23T05:53:23;1.67;;;1.40;;
56399;SDS011;42298;53.638;9.876;2022-07-23T05:55:48;3.30;;;1.27;;
56399;SDS011;42298;53.638;9.876;2022-07-23T05:58:13;4.95;;;1.42;;
56399;SDS011;42298;53.638;9.876;2022-07-23T06:00:39;2.88;;;1.35;;
56399;SDS011;42298;53.638;9.876;2022-07-23T06:03:04;2.47;;;1.48;;
56399;SDS011;42298;53.638;9.876;2022-07-23T06:05:30;3.80;;;1.45;;
56399;SDS011;42298;53.638;9.876;2022-07-23T06:07:55;4.45;;;1.30;;
56399;SDS011;42298;53.638;9.876;2022-07-23T06:10:20;2.95;;;1.45;;
56399;SDS011;42298;53.638;9.876;2022-07-23T06:12:46;4.97;;;1.75;;
56399;SDS011;42298;53.638;9.876;2022-07-23T06:15:11;3.25;;;1.38;;
56399;SDS011;42298;53.638;9.876;2022-07-23T06:17:37;2.70;;;1.38;;
56399;SDS011;42298;53.638;9.876;2022-07-23T06:20:07;6.25;;;1.60;;
56399;SDS011;42298;53.638;9.876;2022-07-23T06:22:33;3.22;;;1.40;;
56399;SDS011;42298;53.638;9.876;2022-07-23T06:24:59;5.30;;;1.58;;
56399;SDS011;42298;53.638;9.876;2022-07-23T06:27:24;7.43;;;1.50;;
56399;SDS011;42298;53.638;9.876;2022-07-23T06:29:49;4.65;;;1.52;;
56399;SDS011;42298;53.638;9.876;2022-07-23T06:32:15;3.00;;;1.38;;
56399;SDS011;42298;53.638;9.876;2022-07-23T06:34:40;3.38;;;1.20;;
56399;SDS011;42298;53.638;9.876;2022-07-23T06:37:05;4.00;;;1.20;;
56399;SDS011;42298;53.638;9.876;2022-07-23T06:39:31;2.55;;;1.52;;
56399;SDS011;42298;53.638;9.876;2022-07-23T06:41:56;4.20;;;1.60;;
56399;SDS011;42298;53.638;9.876;2022-07-23T06:44:22;4.15;;;1.15;;
56399;SDS011;42298;53.638;9.876;2022-07-23T06:46:47;3.33;;;1.30;;
56399;SDS011;42298;53.638;9.876;2022-07-23T06:49:13;3.08;;;1.38;;
56399;SDS011;42298;53.638;9.876;2022-07-23T06:51:38;4.00;;;1.50;;
56399;SDS011;42298;53.638;9.876;2022-07-23T06:54:04;3.53;;;1.38;;
56399;SDS011;42298;53.638;9.876;2022-07-23T06:56:29;3.38;;;1.50;;
56399;SDS011;42298;53.638;9.876;2022-07-23T06:58:55;4.35;;;1.70;;
56399;SDS011;42298;53.638;9.876;2022-07-23T07:01:20;1.95;;;1.60;;
56399;SDS011;42298;53.638;9.876;2022-07-23T07:03:46;6.57;;;1.77;;
56399;SDS011;42298;53.638;9.876;2022-07-23T07:06:11;5.30;;;1.90;;
56399;SDS011;42298;53.638;9.876;2022-07-23T07:08:37;3.03;;;1.52;;
56399;SDS011;42298;53.638;9.876;2022-07-23T07:11:02;3.38;;;1.40;;
56399;SDS011;42298;53.638;9.876;2022-07-23T07:13:28;3.47;;;1.40;;
56399;SDS011;42298;53.638;9.876;2022-07-23T07:15:53;3.53;;;1.20;;
56399;SDS011;42298;53.638;9.876;2022-07-23T07:18:19;2.72;;;1.10;;
56399;SDS011;42298;53.638;9.876;2022-07-23T07:21:07;4.22;;;1.38;;
56399;SDS011;42298;53.638;9.876;2022-07-23T07:23:33;3.42;;;1.00;;
56399;SDS011;42298;53.638;9.876;2022-07-23T07:25:58;2.50;;;1.27;;
56399;SDS011;42298;53.638;9.876;2022-07-23T07:28:23;4.40;;;1.10;;
56399;SDS011;42298;53.638;9.876;2022-07-23T07:30:52;1.38;;;1.27;;
56399;SDS011;42298;53.638;9.876;2022-07-23T07:33:27;1.85;;;1.00;;
56399;SDS011;42298;53.638;9.876;2022-07-23T07:35:52;5.13;;;1.30;;
56399;SDS011;42298;53.638;9.876;2022-07-23T07:38:18;3.22;;;1.13;;
56399;SDS011;42298;53.638;9.876;2022-07-23T07:40:43;3.35;;;1.40;;
56399;SDS011;42298;53.638;9.876;2022-07-23T07:43:09;2.80;;;1.23;;
56399;SDS011;42298;53.638;9.876;2022-07-23T07:45:34;3.70;;;1.40;;
56399;SDS011;42298;53.638;9.876;2022-07-23T07:48:00;3.38;;;1.00;;
56399;SDS011;42298;53.638;9.876;2022-07-23T07:50:27;2.05;;;1.13;;
56399;SDS011;42298;53.638;9.876;2022-07-23T07:52:52;2.08;;;1.10;;
56399;SDS011;42298;53.638;9.876;2022-07-23T07:55:18;4.45;;;1.25;;
56399;SDS011;42298;53.638;9.876;2022-07-23T07:57:43;1.92;;;1.35;;
56399;SDS011;42298;53.638;9.876;2022-07-23T08:00:09;3.80;;;1.42;;
56399;SDS011;42298;53.638;9.876;2022-07-23T08:02:39;1.90;;;0.95;;
56399;SDS011;42298;53.638;9.876;2022-07-23T08:05:24;4.35;;;1.30;;
56399;SDS011;42298;53.638;9.876;2022-07-23T08:07:52;3.28;;;1.30;;
56399;SDS011;42298;53.638;9.876;2022-07-23T08:10:18;4.97;;;1.30;;
56399;SDS011;42298;53.638;9.876;2022-07-23T08:12:45;3.65;;;1.30;;
56399;SDS011;42298;53.638;9.876;2022-07-23T08:15:13;1.67;;;1.33;;
56399;SDS011;42298;53.638;9.876;2022-07-23T08:17:41;2.60;;;1.40;;
56399;SDS011;42298;53.638;9.876;2022-07-23T08:20:08;4.70;;;1.20;;
56399;SDS011;42298;53.638;9.876;2022-07-23T08:25:28;1.95;;;1.10;;
56399;SDS011;42298;53.638;9.876;2022-07-23T08:27:58;5.03;;;1.20;;
56399;SDS011;42298;53.638;9.876;2022-07-23T08:30:29;2.33;;;0.93;;
56399;SDS011;42298;53.638;9.876;2022-07-23T08:35:26;4.22;;;1.30;;
56399;SDS011;42298;53.638;9.876;2022-07-23T08:37:54;2.63;;;1.15;;
56399;SDS011;42298;53.638;9.876;2022-07-23T08:40:19;1.92;;;1.02;;
56399;SDS011;42298;53.638;9.876;2022-07-23T08:42:49;1.50;;;0.90;;
56399;SDS011;42298;53.638;9.876;2022-07-23T08:45:16;2.53;;;1.20;;
56399;SDS011;42298;53.638;9.876;2022-07-23T08:47:43;1.48;;;0.93;;
56399;SDS011;42298;53.638;9.876;2022-07-23T08:50:09;3.35;;;1.23;;
56399;SDS011;42298;53.638;9.876;2022-07-23T08:52:35;1.98;;;0.82;;
56399;SDS011;42298;53.638;9.876;2022-07-23T08:55:02;2.42;;;0.85;;
56399;SDS011;42298;53.638;9.876;2022-07-23T08:57:28;3.97;;;1.00;;
56399;SDS011;42298;53.638;9.876;2022-07-23T08:59:54;2.20;;;1.00;;
56399;SDS011;42298;53.638;9.876;2022-07-23T09:02:19;1.50;;;0.77;;
56399;SDS011;42298;53.638;9.876;2022-07-23T09:04:44;1.95;;;0.88;;
56399;SDS011;42298;53.638;9.876;2022-07-23T09:07:10;1.98;;;0.90;;
56399;SDS011;42298;53.638;9.876;2022-07-23T09:09:35;2.70;;;1.00;;
56399;SDS011;42298;53.638;9.876;2022-07-23T09:12:08;1.80;;;0.98;;
56399;SDS011;42298;53.638;9.876;2022-07-23T09:14:35;3.47;;;1.05;;
56399;SDS011;42298;53.638;9.876;2022-07-23T09:17:09;2.05;;;1.00;;
56399;SDS011;42298;53.638;9.876;2022-07-23T09:19:35;2.03;;;1.10;;
56399;SDS011;42298;53.638;9.876;2022-07-23T09:22:16;0.90;;;0.90;;
56399;SDS011;42298;53.638;9.876;2022-07-23T09:27:45;3.85;;;1.10;;
56399;SDS011;42298;53.638;9.876;2022-07-23T09:30:12;1.50;;;1.15;;
56399;SDS011;42298;53.638;9.876;2022-07-23T09:32:38;3.40;;;1.20;;
56399;SDS011;42298;53.638;9.876;2022-07-23T09:35:04;3.20;;;0.98;;
56399;SDS011;42298;53.638;9.876;2022-07-23T09:37:30;2.92;;;1.00;;
56399;SDS011;42298;53.638;9.876;2022-07-23T09:40:02;1.83;;;1.20;;
56399;SDS011;42298;53.638;9.876;2022-07-23T09:42:29;3.58;;;1.00;;
56399;SDS011;42298;53.638;9.876;2022-07-23T09:44:55;2.70;;;1.10;;
56399;SDS011;42298;53.638;9.876;2022-07-23T09:47:23;2.53;;;0.90;;
56399;SDS011;42298;53.638;9.876;2022-07-23T09:50:09;2.83;;;0.85;;
56399;SDS011;42298;53.638;9.876;2022-07-23T09:52:45;0.80;;;0.80;;
56399;SDS011;42298;53.638;9.876;2022-07-23T09:55:15;2.45;;;0.80;;
56399;SDS011;42298;53.638;9.876;2022-07-23T09:57:42;0.93;;;0.90;;
56399;SDS011;42298;53.638;9.876;2022-07-23T10:00:10;2.38;;;0.73;;
56399;SDS011;42298;53.638;9.876;2022-07-23T10:02:37;2.55;;;0.93;;
56399;SDS011;42298;53.638;9.876;2022-07-23T10:05:04;2.72;;;1.02;;
56399;SDS011;42298;53.638;9.876;2022-07-23T10:07:34;3.15;;;1.02;;
56399;SDS011;42298;53.638;9.876;2022-07-23T10:10:02;0.90;;;0.75;;
56399;SDS011;42298;53.638;9.876;2022-07-23T10:12:29;3.17;;;0.90;;
56399;SDS011;42298;53.638;9.876;2022-07-23T10:15:13;2.17;;;0.85;;
56399;SDS011;42298;53.638;9.876;2022-07-23T10:17:39;1.40;;;0.90;;
56399;SDS011;42298;53.638;9.876;2022-07-23T10:20:04;0.98;;;0.85;;
56399;SDS011;42298;53.638;9.876;2022-07-23T10:22:31;3.22;;;0.93;;
56399;SDS011;42298;53.638;9.876;2022-07-23T10:27:58;5.07;;;1.10;;
56399;SDS011;42298;53.638;9.876;2022-07-23T10:30:39;1.27;;;0.82;;
56399;SDS011;42298;53.638;9.876;2022-07-23T10:36:11;4.53;;;1.10;;
56399;SDS011;42298;53.638;9.876;2022-07-23T10:38:54;0.90;;;0.80;;
56399;SDS011;42298;53.638;9.876;2022-07-23T10:41:37;2.30;;;0.95;;
56399;SDS011;42298;53.638;9.876;2022-07-23T10:47:20;2.22;;;1.10;;
56399;SDS011;42298;53.638;9.876;2022-07-23T10:49:47;1.02;;;0.60;;
56399;SDS011;42298;53.638;9.876;2022-07-23T10:54:39;2.05;;;0.68;;
56399;SDS011;42298;53.638;9.876;2022-07-23T10:57:05;1.35;;;0.80;;
56399;SDS011;42298;53.638;9.876;2022-07-23T10:59:54;3.78;;;1.13;;
56399;SDS011;42298;53.638;9.876;2022-07-23T11:02:30;2.28;;;1.02;;
56399;SDS011;42298;53.638;9.876;2022-07-23T11:04:59;2.50;;;1.05;;
56399;SDS011;42298;53.638;9.876;2022-07-23T11:07:36;0.77;;;0.70;;
56399;SDS011;42298;53.638;9.876;2022-07-23T11:32:02;1.77;;;1.00;;
56399;SDS011;42298;53.638;9.876;2022-07-23T11:36:59;2.45;;;0.85;;
56399;SDS011;42298;53.638;9.876;2022-07-23T11:39:27;4.25;;;1.10;;
56399;SDS011;42298;53.638;9.876;2022-07-23T11:41:54;4.57;;;1.17;;
56399;SDS011;42298;53.638;9.876;2022-07-23T11:44:27;3.65;;;1.15;;
56399;SDS011;42298;53.638;9.876;2022-07-23T11:46:54;2.85;;;1.10;;
56399;SDS011;42298;53.638;9.876;2022-07-23T11:49:21;3.33;;;1.15;;
56399;SDS011;42298;53.638;9.876;2022-07-23T11:51:46;1.35;;;0.90;;
56399;SDS011;42298;53.638;9.876;2022-07-23T11:54:12;2.25;;;1.05;;
56399;SDS011;42298;53.638;9.876;2022-07-23T11:56:37;3.40;;;1.23;;
56399;SDS011;42298;53.638;9.876;2022-07-23T11:59:02;3.50;;;1.58;;
56399;SDS011;42298;53.638;9.876;2022-07-23T12:01:29;4.25;;;1.13;;
56399;SDS011;42298;53.638;9.876;2022-07-23T12:03:54;2.85;;;1.38;;
56399;SDS011;42298;53.638;9.876;2022-07-23T12:06:19;2.33;;;1.15;;
56399;SDS011;42298;53.638;9.876;2022-07-23T12:08:45;3.30;;;1.20;;
56399;SDS011;42298;53.638;9.876;2022-07-23T12:11:11;3.45;;;1.10;;
56399;SDS011;42298;53.638;9.876;2022-07-23T12:13:37;2.10;;;1.10;;
56399;SDS011;42298;53.638;9.876;2022-07-23T12:16:02;5.35;;;1.10;;
56399;SDS011;42298;53.638;9.876;2022-07-23T12:18:29;1.77;;;0.85;;
56399;SDS011;42298;53.638;9.876;2022-07-23T12:20:56;3.25;;;1.10;;
56399;SDS011;42298;53.638;9.876;2022-07-23T12:23:22;3.53;;;1.20;;
56399;SDS011;42298;53.638;9.876;2022-07-23T12:25:49;2.33;;;1.00;;
56399;SDS011;42298;53.638;9.876;2022-07-23T12:28:20;4.18;;;0.95;;
56399;SDS011;42298;53.638;9.876;2022-07-23T12:30:48;4.25;;;1.27;;
56399;SDS011;42298;53.638;9.876;2022-07-23T12:33:27;3.20;;;1.05;;
56399;SDS011;42298;53.638;9.876;2022-07-23T12:35:58;1.98;;;0.95;;
56399;SDS011;42298;53.638;9.876;2022-07-23T12:38:37;1.27;;;0.65;;
56399;SDS011;42298;53.638;9.876;2022-07-23T12:41:11;2.90;;;1.00;;
56399;SDS011;42298;53.638;9.876;2022-07-23T12:43:37;0.80;;;0.80;;
56399;SDS011;42298;53.638;9.876;2022-07-23T12:53:30;3.28;;;0.93;;
56399;SDS011;42298;53.638;9.876;2022-07-23T12:56:04;1.13;;;0.82;;
56399;SDS011;42298;53.638;9.876;2022-07-23T12:58:39;2.80;;;1.00;;
56399;SDS011;42298;53.638;9.876;2022-07-23T13:01:05;3.83;;;0.80;;
56399;SDS011;42298;53.638;9.876;2022-07-23T13:03:35;1.92;;;0.77;;
56399;SDS011;42298;53.638;9.876;2022-07-23T13:06:06;2.83;;;0.95;;
56399;SDS011;42298;53.638;9.876;2022-07-23T13:08:34;2.03;;;0.85;;
56399;SDS011;42298;53.638;9.876;2022-07-23T13:11:01;2.70;;;0.90;;
56399;SDS011;42298;53.638;9.876;2022-07-23T13:13:28;3.25;;;0.82;;
56399;SDS011;42298;53.638;9.876;2022-07-23T13:15:55;1.85;;;0.85;;
56399;SDS011;42298;53.638;9.876;2022-07-23T13:18:21;1.95;;;0.82;;
56399;SDS011;42298;53.638;9.876;2022-07-23T13:20:47;1.75;;;0.80;;
56399;SDS011;42298;53.638;9.876;2022-07-23T13:23:13;1.73;;;0.93;;
56399;SDS011;42298;53.638;9.876;2022-07-23T13:25:39;2.47;;;0.90;;
56399;SDS011;42298;53.638;9.876;2022-07-23T13:28:05;1.65;;;1.00;;
56399;SDS011;42298;53.638;9.876;2022-07-23T13:30:30;1.77;;;0.98;;
56399;SDS011;42298;53.638;9.876;2022-07-23T13:32:56;0.93;;;0.88;;
56399;SDS011;42298;53.638;9.876;2022-07-23T13:35:21;3.47;;;1.00;;
56399;SDS011;42298;53.638;9.876;2022-07-23T13:37:47;3.85;;;1.10;;
56399;SDS011;42298;53.638;9.876;2022-07-23T13:40:13;4.53;;;1.20;;
56399;SDS011;42298;53.638;9.876;2022-07-23T13:42:38;2.63;;;1.10;;
56399;SDS011;42298;53.638;9.876;2022-07-23T13:45:04;4.25;;;1.30;;
56399;SDS011;42298;53.638;9.876;2022-07-23T13:47:30;2.53;;;1.77;;
56399;SDS011;42298;53.638;9.876;2022-07-23T13:49:56;2.65;;;0.93;;
56399;SDS011;42298;53.638;9.876;2022-07-23T13:52:21;2.00;;;0.95;;
56399;SDS011;42298;53.638;9.876;2022-07-23T13:54:47;4.57;;;1.05;;
56399;SDS011;42298;53.638;9.876;2022-07-23T13:57:12;1.63;;;0.90;;
56399;SDS011;42298;53.638;9.876;2022-07-23T13:59:37;3.38;;;1.20;;
56399;SDS011;42298;53.638;9.876;2022-07-23T14:02:03;2.17;;;0.93;;
56399;SDS011;42298;53.638;9.876;2022-07-23T14:04:29;3.58;;;0.85;;
56399;SDS011;42298;53.638;9.876;2022-07-23T14:06:55;2.47;;;0.90;;
56399;SDS011;42298;53.638;9.876;2022-07-23T14:09:20;2.20;;;0.90;;
56399;SDS011;42298;53.638;9.876;2022-07-23T14:11:46;4.65;;;0.98;;
56399;SDS011;42298;53.638;9.876;2022-07-23T14:14:11;2.58;;;0.85;;
56399;SDS011;42298;53.638;9.876;2022-07-23T14:16:37;3.13;;;0.93;;
56399;SDS011;42298;53.638;9.876;2022-07-23T14:19:02;1.75;;;0.82;;
56399;SDS011;42298;53.638;9.876;2022-07-23T14:21:27;2.78;;;1.00;;
56399;SDS011;42298;53.638;9.876;2022-07-23T14:23:53;2.58;;;0.90;;
56399;SDS011;42298;53.638;9.876;2022-07-23T14:26:18;2.33;;;0.88;;
56399;SDS011;42298;53.638;9.876;2022-07-23T14:28:44;1.88;;;0.90;;
56399;SDS011;42298;53.638;9.876;2022-07-23T14:31:09;3.28;;;0.88;;
56399;SDS011;42298;53.638;9.876;2022-07-23T14:33:35;3.88;;;0.95;;
56399;SDS011;42298;53.638;9.876;2022-07-23T14:36:00;2.50;;;0.95;;
56399;SDS011;42298;53.638;9.876;2022-07-23T14:38:25;2.78;;;0.98;;
56399;SDS011;42298;53.638;9.876;2022-07-23T14:40:51;3.85;;;0.98;;
56399;SDS011;42298;53.638;9.876;2022-07-23T14:43:17;3.55;;;0.98;;
56399;SDS011;42298;53.638;9.876;2022-07-23T14:45:42;3.03;;;1.10;;
56399;SDS011;42298;53.638;9.876;2022-07-23T14:48:07;1.52;;;0.93;;
56399;SDS011;42298;53.638;9.876;2022-07-23T14:50:33;2.70;;;1.10;;
56399;SDS011;42298;53.638;9.876;2022-07-23T14:52:58;3.60;;;1.10;;
56399;SDS011;42298;53.638;9.876;2022-07-23T14:55:24;5.15;;;1.17;;
56399;SDS011;42298;53.638;9.876;2022-07-23T14:57:49;2.45;;;1.02;;
56399;SDS011;42298;53.638;9.876;2022-07-23T15:00:14;4.28;;;1.10;;
56399;SDS011;42298;53.638;9.876;2022-07-23T15:02:40;4.00;;;1.10;;
56399;SDS011;42298;53.638;9.876;2022-07-23T15:05:05;3.15;;;0.90;;
56399;SDS011;42298;53.638;9.876;2022-07-23T15:07:31;4.05;;;1.30;;
56399;SDS011;42298;53.638;9.876;2022-07-23T15:09:57;1.60;;;1.02;;
56399;SDS011;42298;53.638;9.876;2022-07-23T15:12:23;2.70;;;1.10;;
56399;SDS011;42298;53.638;9.876;2022-07-23T15:14:48;1.75;;;1.00;;
56399;SDS011;42298;53.638;9.876;2022-07-23T15:17:14;3.03;;;1.45;;
56399;SDS011;42298;53.638;9.876;2022-07-23T15:19:39;3.22;;;1.10;;
56399;SDS011;42298;53.638;9.876;2022-07-23T15:22:04;3.13;;;1.20;;
56399;SDS011;42298;53.638;9.876;2022-07-23T15:24:30;3.55;;;1.17;;
56399;SDS011;42298;53.638;9.876;2022-07-23T15:26:55;1.90;;;1.00;;
56399;SDS011;42298;53.638;9.876;2022-07-23T15:29:21;2.63;;;1.13;;
56399;SDS011;42298;53.638;9.876;2022-07-23T15:31:47;3.58;;;1.25;;
56399;SDS011;42298;53.638;9.876;2022-07-23T15:34:13;4.68;;;1.30;;
56399;SDS011;42298;53.638;9.876;2022-07-23T15:36:38;4.13;;;1.15;;